This is the latest recevied weather packets stored in our database for station/object DL1SEW-6. If no packets are shown the sender has not sent any weather packets the latest 10 day(s).
| Time | Temp. | Humidity | Pressure | Rain* | Wind** | Luminosity | Snow |
|---|---|---|---|---|---|---|---|
| 1777999208 | 15° C | 72% | 1007 hPa | 1.52 mm | - | 17 W/m² | - |
| 1777998308 | 16.67° C | 70% | 1006.7 hPa | 0 mm | - | 11 W/m² | - |
| 1777997408 | 17.22° C | 69% | 1006.6 hPa | 0 mm | - | 149 W/m² | - |
| 1777996508 | 17.22° C | 70% | 1006.5 hPa | 0 mm | - | 270 W/m² | - |
| 1777995609 | 17.22° C | 68% | 1006.7 hPa | 0 mm | - | 476 W/m² | - |
| 1777994709 | 16.67° C | 73% | 1006.7 hPa | 0 mm | - | 636 W/m² | - |
| 1777993808 | 15.56° C | 76% | 1006.7 hPa | 0 mm | - | 505 W/m² | - |
| 1777992907 | 15.56° C | 78% | 1006.8 hPa | 0 mm | - | 398 W/m² | - |
| 1777992007 | 15° C | 80% | 1006.6 hPa | 0 mm | - | 282 W/m² | - |
| 1777991107 | 15° C | 77% | 1006.8 hPa | 0 mm | - | 286 W/m² | - |
| 1777989307 | 14.44° C | 78% | 1006.9 hPa | 0.51 mm | - | 322 W/m² | - |
| 1777988406 | 14.44° C | 77% | 1007.1 hPa | 0.51 mm | - | 225 W/m² | - |
| 1777987506 | 14.44° C | 82% | 1007.3 hPa | 0.51 mm | - | 167 W/m² | - |
| 1777986606 | 14.44° C | 82% | 1007.6 hPa | 0.51 mm | - | 111 W/m² | - |
| 1777985706 | 14.44° C | 82% | 1007.6 hPa | 0.51 mm | - | 127 W/m² | - |
| 1777984806 | 14.44° C | 82% | 1007.8 hPa | 0.51 mm | - | 138 W/m² | - |
| 1777983907 | 14.44° C | 82% | 1008 hPa | 0.76 mm | - | 145 W/m² | - |
| 1777983005 | 14.44° C | 81% | 1007.9 hPa | 0.76 mm | - | 147 W/m² | - |
| 1777982107 | 14.44° C | 80% | 1007.9 hPa | 0.76 mm | - | 144 W/m² | - |
| 1777981206 | 15° C | 80% | 1007.9 hPa | 1.02 mm | - | 157 W/m² | - |
| 1777980311 | 15° C | 80% | 1007.9 hPa | 0.76 mm | - | 166 W/m² | - |
| 1777979409 | 15.56° C | 79% | 1007.9 hPa | 0.51 mm | - | 192 W/m² | - |
| 1777978509 | 16.11° C | 77% | 1007.9 hPa | 0.51 mm | - | 172 W/m² | - |
| 1777977610 | 16.67° C | 70% | 1008 hPa | 0 mm | - | 104 W/m² | - |
| 1777976709 | 17.22° C | 63% | 1007.9 hPa | 0 mm | - | 99 W/m² | - |
* Rain latest hour (hover to see other rain measurements)
** Current wind speed in m/s (hover to see current wind gust speed)